In Rescue
 
Open Full Screen Window  High Contrast Mode
Wind Gusting 00 knots
06
July 24, 2024 4:47 PM CDT
Weather Information
Wind Direction
  160 °
Wind Speed
  06 kt (7 mph)
Wind Gust
  00 kt (0 mph)
Altimeter
30.19 in
Visibility
10 SM
Temperature
24° C
75° F
Dewpoint
14° C
57° F
Humidity
54%
1hr Rain Fall
00.00 in.
24hr Rain Fall
00.03 in.
Sky Condition
Missing
VFR

METAR KADC 242147Z 16006KT 10SM 24/14 A3019 RMK AO2

FAA Disclaimer: The data displayed is for advisory purposes only and is not to be used for flight planning or operations.
Missing Cloud Data